Delray Beach, FL (33483)

7:56 AM EDT on September 04, 2015 (GMT -0400)
Casa Delray | | Change Station
CLOSE
Current Station
Personal Weather Station
Location: Delray Beach, FL
Elevation: 22 ft
Nearby Weather Stations

Elev 22 ft 26.48 °N, 80.07 °W | Updated 52 seconds ago

Clear
Clear
78.4 °F
Feels Like 82 °F
N
0.2
Wind Variable Wind from SW
Gusts 2.5 mph

Today
High -- | Low -- °F
--% Chance of Precip.
Yesterday
High -- | Low -- °F
Precip. -- in
7:01 AM 7:37 PM
Waning Gibbous, 60% visible
Pressure 29.97 in
Visibility 10.0 miles
Clouds Few 2500 ft
Few 16000 ft
Scattered Clouds 25000 ft
Heat Index 82 °F
Dew Point 76 °F
Humidity 92%
Rainfall 0.00 in
Snow Depth Not available.
UV 1.0 out of 12
Pollen 3.60 out of 12
Air Quality Not available.
Flu Activity Not available.
METAR KPMP 041153Z 27004KT 10SM FEW025 FEW160 SCT250 27/24 A2997 RMK AO2 SLP148 T02670239 10278 20261 51015
Pressure 29.97 in
Visibility 10.0 miles
Clouds Few 2500 ft
Few 16000 ft
Scattered Clouds 25000 ft
Heat Index 82 °F
Dew Point 76 °F
Humidity 92%
Rainfall 0.00 in
Snow Depth Not available.
UV 1.0 out of 12
Pollen 3.60 out of 12
Air Quality Not available.
Flu Activity Not available.
METAR KPMP 041153Z 27004KT 10SM FEW025 FEW160 SCT250 27/24 A2997 RMK AO2 SLP148 T02670239 10278 20261 51015

10-Day Weather Forecast

×

Almanac

Astronomy

Sep. 04, 2015 Rise Set
Actual Time
Civil Twilight
Nautical Twilight
Astronomical Twilight
Moon
Length of Visible Light
Length of Day
Tomorrow will be .
, % of the Moon is Illuminated

Today's Extremes

State Highs State Lows

Community

WunderPhotos

Upload Photos

1,852,157 photos uploaded!

WunderBlogs® & News

Nearby

Air Quality

  Air Quality AQ Index Pollutant
Not available.

Snow Depth

Station Depth Elevation

Earthquake Activity

City Distance Mag. Time & Date
Minimum magnitude displayed is 2.5.

Coastal Water Temperatures

Place Temperature

Stations

Nearby Weather Stations

Station Location Temp. Windchill Dew Point Humidity Wind Precip. Elev Updated Type